F/V Loktudi — FGQJ — position and weather

sailwx.info

Track history (hours):
 
Tides and Currents Weather Stations Pressure Air Temp Water Temp Dewpoint Dewpoint Depression Visibility Wind Speed Wind Dir Waves Ship Positions

F/V Loktudi

Last reported at 2017-Sep-05 02:33 UTC. Time now 2017-Sep-19 13:44 UTC.
Position N 47°50' W 004°11'.
Warning: this ship's position is 14 days out of date.

Length 16 m; draft 3 m.

Type: Fishing. MMSI: 228376000.

Date/timePositionNaut miles runAvg speedWind from/ knotsBaromVisibWave heightAir tempDewpointWater temp
2017-Sep-05 02:33N 47°50' W 004°11'5 5.6
2017-Sep-05 01:37N 47°49' W 004°03'1 6.4
2017-Sep-05 01:30N 47°48' W 004°02'4 6.8
2017-Sep-05 00:58N 47°50' W 003°57'5 2.0
2017-Sep-04 22:33N 47°45' W 003°55'14 6.8
2017-Sep-04 20:32N 47°32' W 003°52'0 4.3
2017-Sep-04 20:27N 47°31' W 003°52'1 2.0
2017-Sep-04 19:57N 47°32' W 003°53'2 3.2
2017-Sep-04 19:21N 47°32' W 003°56'1 3.1
2017-Sep-04 19:00N 47°32' W 003°57'2 3.3
2017-Sep-04 18:29N 47°33' W 003°59'3 1.1
2017-Sep-04 15:55N 47°32' W 004°02'2 2.8
2017-Sep-04 15:17N 47°32' W 004°05'9 3.5
2017-Sep-04 12:33N 47°38' W 004°16'12 1.5
2017-Sep-04 04:26N 47°34' W 003°59'  
2017-Sep-01 12:48N 47°44' W 004°19'18 2.1
2017-Sep-01 04:35N 47°32' W 003°59'3 3.3
2017-Sep-01 03:46N 47°32' W 003°55'1 3.7
2017-Sep-01 03:27N 47°32' W 003°53'2 5.6
2017-Sep-01 03:00N 47°35' W 003°54'3 5.9
2017-Sep-01 02:30N 47°38' W 003°54'3 6.1
2017-Sep-01 01:57N 47°41' W 003°54'5 6.0
2017-Sep-01 01:05N 47°46' W 003°55'1 6.5
2017-Sep-01 00:54N 47°47' W 003°55'0 0.2
2017-Aug-31 22:48N 47°48' W 003°55'7 7.2
2017-Aug-31 21:48N 47°41' W 003°52'9 6.8
2017-Aug-31 20:24N 47°31' W 003°49'1 2.1
2017-Aug-31 20:00N 47°32' W 003°50'2 0.1
2017-Aug-31 03:37N 47°32' W 003°54'0 4.7
2017-Aug-31 03:30N 47°32' W 003°55'1 1.7
2017-Aug-31 03:00N 47°33' W 003°55'3 5.5
2017-Aug-31 02:30N 47°36' W 003°55'3 5.7
2017-Aug-31 01:58N 47°39' W 003°55'3 5.8
2017-Aug-31 01:30N 47°42' W 003°55'3 5.8
2017-Aug-31 01:00N 47°45' W 003°55'3 6.8
2017-Aug-31 00:30N 47°48' W 003°56'6 2.4
2017-Aug-30 21:48N 47°41' W 003°55'10 7.1
2017-Aug-30 20:27N 47°32' W 003°55'17 3.1
2017-Aug-30 14:48N 47°39' W 004°18'13 1.3
2017-Aug-30 05:06N 47°33' W 004°01'1 3.2
2017-Aug-30 04:44N 47°33' W 003°60'3 3.1
2017-Aug-30 03:51N 47°32' W 003°56'1 4.2
2017-Aug-30 03:30N 47°32' W 003°54'4 7.3
2017-Aug-30 02:57N 47°36' W 003°54'3 5.5
2017-Aug-30 02:26N 47°39' W 003°55'3 5.7
2017-Aug-30 01:57N 47°42' W 003°55'2 5.4
2017-Aug-30 01:30N 47°44' W 003°55'3 6.3
2017-Aug-30 01:00N 47°48' W 003°56'4 3.0
2017-Aug-29 23:41N 47°51' W 003°56'3 8.3
2017-Aug-29 23:21N 47°49' W 003°56'3 7.4
2017-Aug-29 23:00N 47°46' W 003°55'4 7.3
2017-Aug-29 22:26N 47°42' W 003°55'9 5.9
2017-Aug-29 20:54N 47°34' W 004°00'15 3.1
2017-Aug-29 16:03N 47°40' W 004°20'1 3.2
2017-Aug-29 15:40N 47°40' W 004°22'1 0.1
2017-Aug-29 05:29N 47°41' W 004°21'6 2.8
2017-Aug-29 03:13N 47°41' W 004°12'2 4.4
2017-Aug-29 02:49N 47°42' W 004°09'2 5.9
2017-Aug-29 02:30N 47°42' W 004°07'3 5.4
2017-Aug-29 02:00N 47°44' W 004°04'4 5.7
2017-Aug-29 01:20N 47°47' W 003°60'2 5.7
2017-Aug-29 01:00N 47°49' W 003°58'1 0.5
2017-Aug-28 22:48N 47°49' W 003°57'3 5.7
2017-Aug-28 22:19N 47°47' W 003°60'15 3.8
2017-Aug-28 18:24N 47°39' W 004°18'1 3.3
2017-Aug-28 18:00N 47°38' W 004°16'2 3.1
2017-Aug-28 17:30N 47°37' W 004°14'2 3.4
2017-Aug-28 17:00N 47°35' W 004°14'3 3.5
2017-Aug-28 16:01N 47°32' W 004°15'0 4.5
2017-Aug-28 16:00N 47°32' W 004°15'1 2.2
2017-Aug-28 15:30N 47°31' W 004°14'2 3.3
2017-Aug-28 15:00N 47°31' W 004°12'1 2.9
2017-Aug-28 14:30N 47°32' W 004°14'2 3.3
2017-Aug-28 14:00N 47°31' W 004°16'5 2.6
2017-Aug-28 12:13N 47°28' W 004°21'  
Track history (hours):
 
Tides and Currents Weather Stations Pressure Air Temp Water Temp Dewpoint Dewpoint Depression Visibility Wind Speed Wind Dir Waves Ship Positions

F/V Loktudi

Last reported at 2017-Sep-05 02:33 UTC. Time now 2017-Sep-19 13:44 UTC.
Position N 47°50' W 004°11'.
Warning: this ship's position is 14 days out of date.

Length 16 m; draft 3 m.

Type: Fishing. MMSI: 228376000.

Date/timePositionNaut miles runAvg speedWind from/ knotsBaromVisibWave heightAir tempDewpointWater temp
2017-Sep-05 02:33N 47°50' W 004°11'5 5.6
2017-Sep-05 01:37N 47°49' W 004°03'1 6.4
2017-Sep-05 01:30N 47°48' W 004°02'4 6.8
2017-Sep-05 00:58N 47°50' W 003°57'5 2.0
2017-Sep-04 22:33N 47°45' W 003°55'14 6.8
2017-Sep-04 20:32N 47°32' W 003°52'0 4.3
2017-Sep-04 20:27N 47°31' W 003°52'1 2.0
2017-Sep-04 19:57N 47°32' W 003°53'2 3.2
2017-Sep-04 19:21N 47°32' W 003°56'1 3.1
2017-Sep-04 19:00N 47°32' W 003°57'2 3.3
2017-Sep-04 18:29N 47°33' W 003°59'3 1.1
2017-Sep-04 15:55N 47°32' W 004°02'2 2.8
2017-Sep-04 15:17N 47°32' W 004°05'9 3.5
2017-Sep-04 12:33N 47°38' W 004°16'12 1.5
2017-Sep-04 04:26N 47°34' W 003°59'  
2017-Sep-01 12:48N 47°44' W 004°19'18 2.1
2017-Sep-01 04:35N 47°32' W 003°59'3 3.3
2017-Sep-01 03:46N 47°32' W 003°55'1 3.7
2017-Sep-01 03:27N 47°32' W 003°53'2 5.6
2017-Sep-01 03:00N 47°35' W 003°54'3 5.9
2017-Sep-01 02:30N 47°38' W 003°54'3 6.1
2017-Sep-01 01:57N 47°41' W 003°54'5 6.0
2017-Sep-01 01:05N 47°46' W 003°55'1 6.5
2017-Sep-01 00:54N 47°47' W 003°55'0 0.2
2017-Aug-31 22:48N 47°48' W 003°55'7 7.2
2017-Aug-31 21:48N 47°41' W 003°52'9 6.8
2017-Aug-31 20:24N 47°31' W 003°49'1 2.1
2017-Aug-31 20:00N 47°32' W 003°50'2 0.1
2017-Aug-31 03:37N 47°32' W 003°54'0 4.7
2017-Aug-31 03:30N 47°32' W 003°55'1 1.7
2017-Aug-31 03:00N 47°33' W 003°55'3 5.5
2017-Aug-31 02:30N 47°36' W 003°55'3 5.7
2017-Aug-31 01:58N 47°39' W 003°55'3 5.8
2017-Aug-31 01:30N 47°42' W 003°55'3 5.8
2017-Aug-31 01:00N 47°45' W 003°55'3 6.8
2017-Aug-31 00:30N 47°48' W 003°56'6 2.4
2017-Aug-30 21:48N 47°41' W 003°55'10 7.1
2017-Aug-30 20:27N 47°32' W 003°55'17 3.1
2017-Aug-30 14:48N 47°39' W 004°18'13 1.3
2017-Aug-30 05:06N 47°33' W 004°01'1 3.2
2017-Aug-30 04:44N 47°33' W 003°60'3 3.1
2017-Aug-30 03:51N 47°32' W 003°56'1 4.2
2017-Aug-30 03:30N 47°32' W 003°54'4 7.3
2017-Aug-30 02:57N 47°36' W 003°54'3 5.5
2017-Aug-30 02:26N 47°39' W 003°55'3 5.7
2017-Aug-30 01:57N 47°42' W 003°55'2 5.4
2017-Aug-30 01:30N 47°44' W 003°55'3 6.3
2017-Aug-30 01:00N 47°48' W 003°56'4 3.0
2017-Aug-29 23:41N 47°51' W 003°56'3 8.3
2017-Aug-29 23:21N 47°49' W 003°56'3 7.4
2017-Aug-29 23:00N 47°46' W 003°55'4 7.3
2017-Aug-29 22:26N 47°42' W 003°55'9 5.9
2017-Aug-29 20:54N 47°34' W 004°00'15 3.1
2017-Aug-29 16:03N 47°40' W 004°20'1 3.2
2017-Aug-29 15:40N 47°40' W 004°22'1 0.1
2017-Aug-29 05:29N 47°41' W 004°21'6 2.8
2017-Aug-29 03:13N 47°41' W 004°12'2 4.4
2017-Aug-29 02:49N 47°42' W 004°09'2 5.9
2017-Aug-29 02:30N 47°42' W 004°07'3 5.4
2017-Aug-29 02:00N 47°44' W 004°04'4 5.7
2017-Aug-29 01:20N 47°47' W 003°60'2 5.7
2017-Aug-29 01:00N 47°49' W 003°58'1 0.5
2017-Aug-28 22:48N 47°49' W 003°57'3 5.7
2017-Aug-28 22:19N 47°47' W 003°60'15 3.8
2017-Aug-28 18:24N 47°39' W 004°18'1 3.3
2017-Aug-28 18:00N 47°38' W 004°16'2 3.1
2017-Aug-28 17:30N 47°37' W 004°14'2 3.4
2017-Aug-28 17:00N 47°35' W 004°14'3 3.5
2017-Aug-28 16:01N 47°32' W 004°15'0 4.5
2017-Aug-28 16:00N 47°32' W 004°15'1 2.2
2017-Aug-28 15:30N 47°31' W 004°14'2 3.3
2017-Aug-28 15:00N 47°31' W 004°12'1 2.9
2017-Aug-28 14:30N 47°32' W 004°14'2 3.3
2017-Aug-28 14:00N 47°31' W 004°16'5 2.6
2017-Aug-28 12:13N 47°28' W 004°21'  

Dump ship's entire track history